sensor_id;sensor_type;location;lat;lon;timestamp;P1;durP1;ratioP1;P2;durP2;ratioP2
2035;SDS011;23642;42.658;23.350;2023-04-29T00:02:22;110.47;;;103.70;;
2035;SDS011;23642;42.658;23.350;2023-04-29T00:04:48;110.20;;;103.70;;
2035;SDS011;23642;42.658;23.350;2023-04-29T00:07:15;111.70;;;105.10;;
2035;SDS011;23642;42.658;23.350;2023-04-29T00:09:45;108.63;;;101.93;;
2035;SDS011;23642;42.658;23.350;2023-04-29T00:12:13;110.10;;;103.40;;
2035;SDS011;23642;42.658;23.350;2023-04-29T00:14:41;107.80;;;101.17;;
2035;SDS011;23642;42.658;23.350;2023-04-29T00:17:09;105.70;;;99.40;;
2035;SDS011;23642;42.658;23.350;2023-04-29T00:19:36;108.27;;;102.07;;
2035;SDS011;23642;42.658;23.350;2023-04-29T00:22:03;107.60;;;101.30;;
2035;SDS011;23642;42.658;23.350;2023-04-29T00:24:30;108.77;;;101.90;;
2035;SDS011;23642;42.658;23.350;2023-04-29T00:26:56;109.83;;;103.43;;
2035;SDS011;23642;42.658;23.350;2023-04-29T00:29:29;106.80;;;100.40;;
2035;SDS011;23642;42.658;23.350;2023-04-29T00:31:56;105.73;;;99.53;;
2035;SDS011;23642;42.658;23.350;2023-04-29T00:34:24;108.13;;;101.60;;
2035;SDS011;23642;42.658;23.350;2023-04-29T00:36:51;107.83;;;100.77;;
2035;SDS011;23642;42.658;23.350;2023-04-29T00:39:18;107.03;;;100.30;;
2035;SDS011;23642;42.658;23.350;2023-04-29T00:41:47;106.80;;;99.80;;
2035;SDS011;23642;42.658;23.350;2023-04-29T00:44:17;107.60;;;101.20;;
2035;SDS011;23642;42.658;23.350;2023-04-29T00:46:44;107.00;;;100.30;;
2035;SDS011;23642;42.658;23.350;2023-04-29T00:49:12;105.20;;;98.73;;
2035;SDS011;23642;42.658;23.350;2023-04-29T00:51:40;105.57;;;98.63;;
2035;SDS011;23642;42.658;23.350;2023-04-29T00:54:09;109.27;;;102.77;;
2035;SDS011;23642;42.658;23.350;2023-04-29T00:56:37;108.53;;;101.80;;
2035;SDS011;23642;42.658;23.350;2023-04-29T00:59:10;108.33;;;101.40;;
2035;SDS011;23642;42.658;23.350;2023-04-29T01:01:39;107.77;;;101.00;;
2035;SDS011;23642;42.658;23.350;2023-04-29T01:04:07;107.80;;;100.83;;
2035;SDS011;23642;42.658;23.350;2023-04-29T01:06:36;109.73;;;103.13;;
2035;SDS011;23642;42.658;23.350;2023-04-29T01:09:31;108.57;;;101.40;;
2035;SDS011;23642;42.658;23.350;2023-04-29T01:12:11;109.73;;;102.63;;
2035;SDS011;23642;42.658;23.350;2023-04-29T01:14:57;110.50;;;103.23;;
2035;SDS011;23642;42.658;23.350;2023-04-29T01:17:46;112.03;;;105.07;;
2035;SDS011;23642;42.658;23.350;2023-04-29T01:20:19;112.47;;;105.10;;
2035;SDS011;23642;42.658;23.350;2023-04-29T01:22:49;112.60;;;105.50;;
2035;SDS011;23642;42.658;23.350;2023-04-29T01:25:17;111.70;;;104.20;;
2035;SDS011;23642;42.658;23.350;2023-04-29T01:27:46;112.17;;;104.57;;
2035;SDS011;23642;42.658;23.350;2023-04-29T01:30:26;116.93;;;109.57;;
2035;SDS011;23642;42.658;23.350;2023-04-29T01:32:58;113.43;;;106.43;;
2035;SDS011;23642;42.658;23.350;2023-04-29T01:35:32;112.93;;;105.67;;
2035;SDS011;23642;42.658;23.350;2023-04-29T01:38:16;108.70;;;101.20;;
2035;SDS011;23642;42.658;23.350;2023-04-29T01:40:48;108.70;;;101.37;;
2035;SDS011;23642;42.658;23.350;2023-04-29T01:43:23;111.13;;;104.23;;
2035;SDS011;23642;42.658;23.350;2023-04-29T01:45:53;108.17;;;101.37;;
2035;SDS011;23642;42.658;23.350;2023-04-29T01:48:28;111.27;;;104.57;;
2035;SDS011;23642;42.658;23.350;2023-04-29T01:50:58;114.20;;;106.07;;
2035;SDS011;23642;42.658;23.350;2023-04-29T01:53:25;111.27;;;104.77;;
2035;SDS011;23642;42.658;23.350;2023-04-29T01:55:53;110.47;;;103.50;;
2035;SDS011;23642;42.658;23.350;2023-04-29T01:58:22;113.53;;;106.80;;
2035;SDS011;23642;42.658;23.350;2023-04-29T02:00:48;108.40;;;101.90;;
2035;SDS011;23642;42.658;23.350;2023-04-29T02:03:15;111.70;;;104.80;;
2035;SDS011;23642;42.658;23.350;2023-04-29T02:05:45;108.27;;;101.67;;
2035;SDS011;23642;42.658;23.350;2023-04-29T02:08:11;108.03;;;101.63;;
2035;SDS011;23642;42.658;23.350;2023-04-29T02:10:38;111.33;;;104.37;;
2035;SDS011;23642;42.658;23.350;2023-04-29T02:13:08;108.40;;;101.67;;
2035;SDS011;23642;42.658;23.350;2023-04-29T02:15:37;108.67;;;101.77;;
2035;SDS011;23642;42.658;23.350;2023-04-29T02:18:04;112.40;;;105.33;;
2035;SDS011;23642;42.658;23.350;2023-04-29T02:20:31;112.50;;;105.53;;
2035;SDS011;23642;42.658;23.350;2023-04-29T02:22:59;114.50;;;107.20;;
2035;SDS011;23642;42.658;23.350;2023-04-29T02:25:26;110.57;;;103.30;;
2035;SDS011;23642;42.658;23.350;2023-04-29T02:27:55;111.47;;;104.13;;
2035;SDS011;23642;42.658;23.350;2023-04-29T02:30:23;107.83;;;100.93;;
2035;SDS011;23642;42.658;23.350;2023-04-29T02:32:53;108.77;;;101.70;;
2035;SDS011;23642;42.658;23.350;2023-04-29T02:35:21;110.03;;;103.07;;
2035;SDS011;23642;42.658;23.350;2023-04-29T02:37:48;108.63;;;101.63;;
2035;SDS011;23642;42.658;23.350;2023-04-29T02:40:15;110.23;;;102.73;;
2035;SDS011;23642;42.658;23.350;2023-04-29T02:42:42;108.73;;;101.63;;
2035;SDS011;23642;42.658;23.350;2023-04-29T02:45:09;106.90;;;100.10;;
2035;SDS011;23642;42.658;23.350;2023-04-29T02:47:41;107.80;;;101.20;;
2035;SDS011;23642;42.658;23.350;2023-04-29T02:50:07;109.00;;;102.20;;
2035;SDS011;23642;42.658;23.350;2023-04-29T02:52:37;102.73;;;96.23;;
2035;SDS011;23642;42.658;23.350;2023-04-29T02:55:06;107.63;;;100.77;;
2035;SDS011;23642;42.658;23.350;2023-04-29T02:57:35;107.70;;;100.97;;
2035;SDS011;23642;42.658;23.350;2023-04-29T03:00:02;101.23;;;94.83;;
2035;SDS011;23642;42.658;23.350;2023-04-29T03:02:29;107.83;;;101.00;;
2035;SDS011;23642;42.658;23.350;2023-04-29T03:04:57;105.67;;;98.97;;
2035;SDS011;23642;42.658;23.350;2023-04-29T03:07:27;105.60;;;98.77;;
2035;SDS011;23642;42.658;23.350;2023-04-29T03:10:08;107.13;;;100.23;;
2035;SDS011;23642;42.658;23.350;2023-04-29T03:12:35;107.53;;;100.93;;
2035;SDS011;23642;42.658;23.350;2023-04-29T03:15:04;105.60;;;98.90;;
2035;SDS011;23642;42.658;23.350;2023-04-29T03:17:31;108.83;;;101.90;;
2035;SDS011;23642;42.658;23.350;2023-04-29T03:20:00;105.23;;;98.80;;
2035;SDS011;23642;42.658;23.350;2023-04-29T03:22:27;107.90;;;100.80;;
2035;SDS011;23642;42.658;23.350;2023-04-29T03:24:54;106.30;;;99.40;;
2035;SDS011;23642;42.658;23.350;2023-04-29T03:27:21;109.10;;;102.27;;
2035;SDS011;23642;42.658;23.350;2023-04-29T03:29:48;105.97;;;98.97;;
2035;SDS011;23642;42.658;23.350;2023-04-29T03:32:14;105.80;;;98.77;;
2035;SDS011;23642;42.658;23.350;2023-04-29T03:34:41;105.50;;;97.87;;
2035;SDS011;23642;42.658;23.350;2023-04-29T03:37:09;105.73;;;98.70;;
2035;SDS011;23642;42.658;23.350;2023-04-29T03:39:36;104.13;;;97.33;;
2035;SDS011;23642;42.658;23.350;2023-04-29T03:42:03;106.70;;;99.07;;
2035;SDS011;23642;42.658;23.350;2023-04-29T03:44:35;103.80;;;96.87;;
2035;SDS011;23642;42.658;23.350;2023-04-29T03:47:02;106.07;;;98.90;;
2035;SDS011;23642;42.658;23.350;2023-04-29T03:49:32;105.67;;;98.43;;
2035;SDS011;23642;42.658;23.350;2023-04-29T03:51:59;105.10;;;98.30;;
2035;SDS011;23642;42.658;23.350;2023-04-29T03:54:28;105.03;;;98.00;;
2035;SDS011;23642;42.658;23.350;2023-04-29T03:56:55;105.50;;;98.03;;
2035;SDS011;23642;42.658;23.350;2023-04-29T03:59:22;103.93;;;97.03;;
2035;SDS011;23642;42.658;23.350;2023-04-29T04:01:49;105.67;;;98.67;;
2035;SDS011;23642;42.658;23.350;2023-04-29T04:04:21;107.73;;;99.93;;
2035;SDS011;23642;42.658;23.350;2023-04-29T04:06:48;103.93;;;97.07;;
2035;SDS011;23642;42.658;23.350;2023-04-29T04:09:15;103.60;;;96.60;;
2035;SDS011;23642;42.658;23.350;2023-04-29T04:11:44;99.60;;;92.70;;
2035;SDS011;23642;42.658;23.350;2023-04-29T04:14:11;102.23;;;95.33;;
2035;SDS011;23642;42.658;23.350;2023-04-29T04:16:38;106.17;;;99.10;;
2035;SDS011;23642;42.658;23.350;2023-04-29T04:19:06;106.83;;;100.03;;
2035;SDS011;23642;42.658;23.350;2023-04-29T04:21:34;104.70;;;97.80;;
2035;SDS011;23642;42.658;23.350;2023-04-29T04:24:01;106.80;;;99.87;;
2035;SDS011;23642;42.658;23.350;2023-04-29T04:26:28;108.73;;;101.43;;
2035;SDS011;23642;42.658;23.350;2023-04-29T04:28:57;109.70;;;102.60;;
2035;SDS011;23642;42.658;23.350;2023-04-29T04:31:24;110.10;;;102.90;;
2035;SDS011;23642;42.658;23.350;2023-04-29T04:33:50;110.93;;;102.93;;
2035;SDS011;23642;42.658;23.350;2023-04-29T04:36:17;110.67;;;102.83;;
2035;SDS011;23642;42.658;23.350;2023-04-29T04:38:55;110.07;;;103.10;;
2035;SDS011;23642;42.658;23.350;2023-04-29T04:41:23;112.67;;;105.60;;
2035;SDS011;23642;42.658;23.350;2023-04-29T04:43:50;110.53;;;102.93;;
2035;SDS011;23642;42.658;23.350;2023-04-29T04:46:18;109.23;;;102.07;;
2035;SDS011;23642;42.658;23.350;2023-04-29T04:48:45;110.57;;;103.70;;
2035;SDS011;23642;42.658;23.350;2023-04-29T04:51:12;110.73;;;103.70;;
2035;SDS011;23642;42.658;23.350;2023-04-29T04:53:39;112.20;;;105.00;;
2035;SDS011;23642;42.658;23.350;2023-04-29T04:56:09;113.07;;;105.23;;
2035;SDS011;23642;42.658;23.350;2023-04-29T04:58:36;113.17;;;105.53;;
2035;SDS011;23642;42.658;23.350;2023-04-29T05:01:03;111.17;;;103.87;;
2035;SDS011;23642;42.658;23.350;2023-04-29T05:03:40;112.47;;;105.20;;
2035;SDS011;23642;42.658;23.350;2023-04-29T05:06:07;111.00;;;103.97;;
2035;SDS011;23642;42.658;23.350;2023-04-29T05:08:33;111.10;;;104.00;;
2035;SDS011;23642;42.658;23.350;2023-04-29T05:11:00;111.27;;;103.93;;
2035;SDS011;23642;42.658;23.350;2023-04-29T05:13:27;112.57;;;105.33;;
2035;SDS011;23642;42.658;23.350;2023-04-29T05:15:57;110.87;;;103.27;;
2035;SDS011;23642;42.658;23.350;2023-04-29T05:18:27;112.03;;;104.17;;
2035;SDS011;23642;42.658;23.350;2023-04-29T05:21:01;108.03;;;100.90;;
2035;SDS011;23642;42.658;23.350;2023-04-29T05:23:37;110.83;;;103.73;;
2035;SDS011;23642;42.658;23.350;2023-04-29T05:26:05;110.70;;;103.23;;
2035;SDS011;23642;42.658;23.350;2023-04-29T05:28:32;108.50;;;101.40;;
2035;SDS011;23642;42.658;23.350;2023-04-29T05:30:59;110.60;;;102.80;;
2035;SDS011;23642;42.658;23.350;2023-04-29T05:33:30;108.87;;;101.77;;
2035;SDS011;23642;42.658;23.350;2023-04-29T05:35:58;109.50;;;102.30;;
2035;SDS011;23642;42.658;23.350;2023-04-29T05:38:28;108.10;;;100.77;;
2035;SDS011;23642;42.658;23.350;2023-04-29T05:40:55;109.53;;;102.43;;
2035;SDS011;23642;42.658;23.350;2023-04-29T05:43:24;110.10;;;102.77;;
2035;SDS011;23642;42.658;23.350;2023-04-29T05:45:53;110.37;;;103.23;;
2035;SDS011;23642;42.658;23.350;2023-04-29T05:48:24;109.73;;;102.20;;
2035;SDS011;23642;42.658;23.350;2023-04-29T05:50:53;108.53;;;101.70;;
2035;SDS011;23642;42.658;23.350;2023-04-29T05:53:32;107.50;;;100.50;;
2035;SDS011;23642;42.658;23.350;2023-04-29T05:56:00;109.60;;;102.03;;
2035;SDS011;23642;42.658;23.350;2023-04-29T05:58:29;106.20;;;99.50;;
2035;SDS011;23642;42.658;23.350;2023-04-29T06:00:55;108.37;;;101.13;;
2035;SDS011;23642;42.658;23.350;2023-04-29T06:03:22;108.93;;;102.23;;
2035;SDS011;23642;42.658;23.350;2023-04-29T06:05:52;106.57;;;99.77;;
2035;SDS011;23642;42.658;23.350;2023-04-29T06:08:19;106.30;;;99.67;;
2035;SDS011;23642;42.658;23.350;2023-04-29T06:10:48;104.73;;;97.67;;
2035;SDS011;23642;42.658;23.350;2023-04-29T06:13:32;107.93;;;100.80;;
2035;SDS011;23642;42.658;23.350;2023-04-29T06:16:03;107.23;;;100.30;;
2035;SDS011;23642;42.658;23.350;2023-04-29T06:18:33;110.43;;;102.50;;
2035;SDS011;23642;42.658;23.350;2023-04-29T06:21:19;107.37;;;100.57;;
2035;SDS011;23642;42.658;23.350;2023-04-29T06:23:46;106.10;;;99.13;;
2035;SDS011;23642;42.658;23.350;2023-04-29T06:26:14;106.20;;;99.60;;
2035;SDS011;23642;42.658;23.350;2023-04-29T06:28:41;107.53;;;100.60;;
2035;SDS011;23642;42.658;23.350;2023-04-29T06:31:25;122.63;;;113.33;;
2035;SDS011;23642;42.658;23.350;2023-04-29T06:33:54;108.37;;;101.33;;
2035;SDS011;23642;42.658;23.350;2023-04-29T06:36:21;108.00;;;100.83;;
2035;SDS011;23642;42.658;23.350;2023-04-29T06:38:48;108.97;;;100.80;;
2035;SDS011;23642;42.658;23.350;2023-04-29T06:41:22;107.53;;;99.77;;
2035;SDS011;23642;42.658;23.350;2023-04-29T06:43:49;105.20;;;98.53;;
2035;SDS011;23642;42.658;23.350;2023-04-29T06:46:15;104.53;;;97.73;;
2035;SDS011;23642;42.658;23.350;2023-04-29T06:48:42;103.83;;;97.03;;
2035;SDS011;23642;42.658;23.350;2023-04-29T06:51:10;104.37;;;97.67;;
2035;SDS011;23642;42.658;23.350;2023-04-29T06:53:37;103.63;;;97.03;;
2035;SDS011;23642;42.658;23.350;2023-04-29T06:56:04;103.33;;;96.43;;
2035;SDS011;23642;42.658;23.350;2023-04-29T06:58:37;104.07;;;97.00;;
2035;SDS011;23642;42.658;23.350;2023-04-29T07:01:05;102.87;;;96.07;;
2035;SDS011;23642;42.658;23.350;2023-04-29T07:03:33;103.60;;;96.80;;
2035;SDS011;23642;42.658;23.350;2023-04-29T07:06:00;102.77;;;95.83;;
2035;SDS011;23642;42.658;23.350;2023-04-29T07:08:27;104.70;;;97.97;;
2035;SDS011;23642;42.658;23.350;2023-04-29T07:10:58;106.20;;;98.97;;
2035;SDS011;23642;42.658;23.350;2023-04-29T07:13:26;101.37;;;94.37;;
2035;SDS011;23642;42.658;23.350;2023-04-29T07:15:55;103.90;;;96.77;;
2035;SDS011;23642;42.658;23.350;2023-04-29T07:18:24;101.77;;;95.30;;
2035;SDS011;23642;42.658;23.350;2023-04-29T07:20:51;101.60;;;94.67;;
2035;SDS011;23642;42.658;23.350;2023-04-29T07:23:28;102.97;;;96.17;;
2035;SDS011;23642;42.658;23.350;2023-04-29T07:25:58;101.47;;;94.80;;
2035;SDS011;23642;42.658;23.350;2023-04-29T07:28:34;100.10;;;93.57;;
2035;SDS011;23642;42.658;23.350;2023-04-29T07:31:02;102.63;;;95.90;;
2035;SDS011;23642;42.658;23.350;2023-04-29T07:33:29;102.30;;;95.30;;
2035;SDS011;23642;42.658;23.350;2023-04-29T07:36:03;103.40;;;95.67;;
2035;SDS011;23642;42.658;23.350;2023-04-29T07:38:31;101.77;;;94.73;;
2035;SDS011;23642;42.658;23.350;2023-04-29T07:41:20;102.97;;;96.40;;
2035;SDS011;23642;42.658;23.350;2023-04-29T07:43:54;104.10;;;96.67;;
2035;SDS011;23642;42.658;23.350;2023-04-29T07:46:22;104.63;;;97.20;;
2035;SDS011;23642;42.658;23.350;2023-04-29T07:49:03;99.97;;;93.60;;
2035;SDS011;23642;42.658;23.350;2023-04-29T07:51:41;100.57;;;94.27;;
2035;SDS011;23642;42.658;23.350;2023-04-29T07:54:19;101.47;;;94.97;;
2035;SDS011;23642;42.658;23.350;2023-04-29T07:56:52;101.20;;;94.33;;
2035;SDS011;23642;42.658;23.350;2023-04-29T07:59:19;102.67;;;95.53;;
2035;SDS011;23642;42.658;23.350;2023-04-29T08:01:49;100.23;;;93.67;;
2035;SDS011;23642;42.658;23.350;2023-04-29T08:04:17;100.73;;;93.80;;
2035;SDS011;23642;42.658;23.350;2023-04-29T08:06:44;98.40;;;92.20;;
2035;SDS011;23642;42.658;23.350;2023-04-29T08:09:13;99.90;;;93.50;;
2035;SDS011;23642;42.658;23.350;2023-04-29T08:11:40;99.10;;;92.67;;
2035;SDS011;23642;42.658;23.350;2023-04-29T08:14:09;97.50;;;91.30;;
2035;SDS011;23642;42.658;23.350;2023-04-29T08:16:35;99.53;;;93.10;;
2035;SDS011;23642;42.658;23.350;2023-04-29T08:19:07;100.73;;;94.03;;
2035;SDS011;23642;42.658;23.350;2023-04-29T08:21:34;100.33;;;93.90;;
2035;SDS011;23642;42.658;23.350;2023-04-29T08:24:02;99.50;;;93.03;;
2035;SDS011;23642;42.658;23.350;2023-04-29T08:26:33;100.17;;;93.93;;
2035;SDS011;23642;42.658;23.350;2023-04-29T08:29:08;98.27;;;91.83;;
2035;SDS011;23642;42.658;23.350;2023-04-29T08:31:35;100.00;;;93.53;;
2035;SDS011;23642;42.658;23.350;2023-04-29T08:34:07;100.40;;;93.83;;
2035;SDS011;23642;42.658;23.350;2023-04-29T08:36:37;99.93;;;93.40;;
2035;SDS011;23642;42.658;23.350;2023-04-29T08:39:04;99.10;;;92.90;;
2035;SDS011;23642;42.658;23.350;2023-04-29T08:41:31;100.87;;;94.37;;
2035;SDS011;23642;42.658;23.350;2023-04-29T08:43:58;100.80;;;94.40;;
2035;SDS011;23642;42.658;23.350;2023-04-29T08:46:26;99.43;;;93.03;;
2035;SDS011;23642;42.658;23.350;2023-04-29T08:48:54;97.53;;;91.47;;
2035;SDS011;23642;42.658;23.350;2023-04-29T08:51:23;98.50;;;92.50;;
2035;SDS011;23642;42.658;23.350;2023-04-29T08:53:51;99.73;;;93.23;;
2035;SDS011;23642;42.658;23.350;2023-04-29T08:56:19;99.83;;;93.63;;
2035;SDS011;23642;42.658;23.350;2023-04-29T08:58:47;98.97;;;92.60;;
2035;SDS011;23642;42.658;23.350;2023-04-29T09:01:18;99.37;;;92.90;;
2035;SDS011;23642;42.658;23.350;2023-04-29T09:03:50;97.23;;;91.20;;
2035;SDS011;23642;42.658;23.350;2023-04-29T09:06:26;98.30;;;92.20;;
2035;SDS011;23642;42.658;23.350;2023-04-29T09:08:57;99.77;;;93.37;;
2035;SDS011;23642;42.658;23.350;2023-04-29T09:11:36;97.37;;;91.17;;
2035;SDS011;23642;42.658;23.350;2023-04-29T09:14:03;95.73;;;89.93;;
2035;SDS011;23642;42.658;23.350;2023-04-29T09:16:33;98.70;;;92.33;;
2035;SDS011;23642;42.658;23.350;2023-04-29T09:19:02;99.43;;;93.30;;
2035;SDS011;23642;42.658;23.350;2023-04-29T09:21:30;96.03;;;89.47;;
2035;SDS011;23642;42.658;23.350;2023-04-29T09:24:00;99.37;;;93.17;;
2035;SDS011;23642;42.658;23.350;2023-04-29T09:26:34;98.60;;;92.63;;
2035;SDS011;23642;42.658;23.350;2023-04-29T09:29:11;96.83;;;90.93;;
2035;SDS011;23642;42.658;23.350;2023-04-29T09:31:45;100.37;;;94.07;;
2035;SDS011;23642;42.658;23.350;2023-04-29T09:34:12;100.30;;;94.20;;
2035;SDS011;23642;42.658;23.350;2023-04-29T09:36:42;98.70;;;92.60;;
2035;SDS011;23642;42.658;23.350;2023-04-29T09:39:13;99.60;;;93.57;;
2035;SDS011;23642;42.658;23.350;2023-04-29T09:41:42;101.60;;;95.30;;
2035;SDS011;23642;42.658;23.350;2023-04-29T09:44:25;100.20;;;93.90;;
2035;SDS011;23642;42.658;23.350;2023-04-29T09:46:53;99.00;;;92.90;;
2035;SDS011;23642;42.658;23.350;2023-04-29T09:49:21;101.73;;;95.23;;
2035;SDS011;23642;42.658;23.350;2023-04-29T09:51:54;97.93;;;91.53;;
2035;SDS011;23642;42.658;23.350;2023-04-29T09:54:22;97.83;;;91.40;;
2035;SDS011;23642;42.658;23.350;2023-04-29T09:57:07;99.30;;;93.13;;
2035;SDS011;23642;42.658;23.350;2023-04-29T09:59:36;101.77;;;95.57;;
2035;SDS011;23642;42.658;23.350;2023-04-29T10:08:30;101.40;;;94.93;;
2035;SDS011;23642;42.658;23.350;2023-04-29T10:10:58;101.63;;;95.03;;
2035;SDS011;23642;42.658;23.350;2023-04-29T10:13:29;101.10;;;94.80;;
2035;SDS011;23642;42.658;23.350;2023-04-29T10:15:59;106.50;;;99.70;;
2035;SDS011;23642;42.658;23.350;2023-04-29T10:18:36;102.77;;;96.40;;
2035;SDS011;23642;42.658;23.350;2023-04-29T10:21:06;101.13;;;94.60;;
2035;SDS011;23642;42.658;23.350;2023-04-29T10:23:36;100.57;;;94.20;;
2035;SDS011;23642;42.658;23.350;2023-04-29T10:26:11;97.77;;;91.77;;
2035;SDS011;23642;42.658;23.350;2023-04-29T10:28:40;99.97;;;93.00;;
2035;SDS011;23642;42.658;23.350;2023-04-29T10:31:16;103.47;;;96.50;;
2035;SDS011;23642;42.658;23.350;2023-04-29T10:33:48;98.40;;;92.20;;
2035;SDS011;23642;42.658;23.350;2023-04-29T10:36:24;100.70;;;94.60;;
2035;SDS011;23642;42.658;23.350;2023-04-29T10:38:55;101.33;;;94.83;;
2035;SDS011;23642;42.658;23.350;2023-04-29T10:41:30;98.27;;;91.93;;
2035;SDS011;23642;42.658;23.350;2023-04-29T10:44:02;99.27;;;93.07;;
2035;SDS011;23642;42.658;23.350;2023-04-29T10:46:31;100.80;;;94.53;;
2035;SDS011;23642;42.658;23.350;2023-04-29T10:48:59;98.00;;;92.00;;
2035;SDS011;23642;42.658;23.350;2023-04-29T10:51:30;100.17;;;93.97;;
2035;SDS011;23642;42.658;23.350;2023-04-29T10:54:00;102.67;;;96.03;;
2035;SDS011;23642;42.658;23.350;2023-04-29T10:56:34;101.67;;;95.23;;
2035;SDS011;23642;42.658;23.350;2023-04-29T10:59:14;100.67;;;94.50;;
2035;SDS011;23642;42.658;23.350;2023-04-29T11:01:46;96.27;;;90.47;;
2035;SDS011;23642;42.658;23.350;2023-04-29T11:04:22;98.97;;;92.83;;
2035;SDS011;23642;42.658;23.350;2023-04-29T11:06:50;97.73;;;91.37;;
2035;SDS011;23642;42.658;23.350;2023-04-29T11:09:20;95.70;;;89.80;;
2035;SDS011;23642;42.658;23.350;2023-04-29T11:11:58;99.90;;;93.70;;
2035;SDS011;23642;42.658;23.350;2023-04-29T11:14:40;97.10;;;90.50;;
2035;SDS011;23642;42.658;23.350;2023-04-29T11:17:16;97.37;;;91.47;;
2035;SDS011;23642;42.658;23.350;2023-04-29T11:19:45;97.50;;;91.70;;
2035;SDS011;23642;42.658;23.350;2023-04-29T11:22:26;98.17;;;92.20;;
2035;SDS011;23642;42.658;23.350;2023-04-29T11:24:58;98.73;;;92.83;;
2035;SDS011;23642;42.658;23.350;2023-04-29T11:27:29;98.23;;;92.43;;
2035;SDS011;23642;42.658;23.350;2023-04-29T11:30:06;98.57;;;92.50;;
2035;SDS011;23642;42.658;23.350;2023-04-29T11:32:34;96.13;;;89.97;;
2035;SDS011;23642;42.658;23.350;2023-04-29T11:35:07;96.83;;;91.00;;
2035;SDS011;23642;42.658;23.350;2023-04-29T11:37:40;95.73;;;90.00;;
2035;SDS011;23642;42.658;23.350;2023-04-29T11:40:28;94.10;;;88.57;;
2035;SDS011;23642;42.658;23.350;2023-04-29T11:43:00;95.83;;;90.23;;
2035;SDS011;23642;42.658;23.350;2023-04-29T11:45:38;95.17;;;89.57;;
2035;SDS011;23642;42.658;23.350;2023-04-29T11:48:07;96.60;;;90.90;;
2035;SDS011;23642;42.658;23.350;2023-04-29T11:50:43;94.63;;;88.80;;
2035;SDS011;23642;42.658;23.350;2023-04-29T11:53:11;95.93;;;90.23;;
2035;SDS011;23642;42.658;23.350;2023-04-29T11:58:26;96.17;;;90.37;;
2035;SDS011;23642;42.658;23.350;2023-04-29T12:00:53;93.93;;;88.47;;
2035;SDS011;23642;42.658;23.350;2023-04-29T12:03:25;95.17;;;89.53;;
2035;SDS011;23642;42.658;23.350;2023-04-29T12:05:54;96.67;;;90.63;;
2035;SDS011;23642;42.658;23.350;2023-04-29T12:08:21;95.03;;;89.30;;
2035;SDS011;23642;42.658;23.350;2023-04-29T12:10:53;96.70;;;90.60;;
2035;SDS011;23642;42.658;23.350;2023-04-29T12:13:24;96.77;;;90.97;;
2035;SDS011;23642;42.658;23.350;2023-04-29T12:15:52;98.43;;;92.53;;
2035;SDS011;23642;42.658;23.350;2023-04-29T12:18:28;96.37;;;90.47;;
2035;SDS011;23642;42.658;23.350;2023-04-29T12:20:57;96.37;;;90.57;;
2035;SDS011;23642;42.658;23.350;2023-04-29T12:23:25;96.53;;;90.40;;
2035;SDS011;23642;42.658;23.350;2023-04-29T12:25:55;97.43;;;91.10;;
2035;SDS011;23642;42.658;23.350;2023-04-29T12:28:27;93.93;;;88.00;;
2035;SDS011;23642;42.658;23.350;2023-04-29T12:30:54;95.17;;;89.57;;
2035;SDS011;23642;42.658;23.350;2023-04-29T12:33:28;95.60;;;90.00;;
2035;SDS011;23642;42.658;23.350;2023-04-29T12:35:55;96.10;;;90.50;;
2035;SDS011;23642;42.658;23.350;2023-04-29T12:38:24;94.43;;;88.63;;
2035;SDS011;23642;42.658;23.350;2023-04-29T12:41:14;97.33;;;91.50;;
2035;SDS011;23642;42.658;23.350;2023-04-29T12:43:53;96.60;;;90.70;;
2035;SDS011;23642;42.658;23.350;2023-04-29T12:46:21;96.07;;;90.47;;
2035;SDS011;23642;42.658;23.350;2023-04-29T12:48:49;97.23;;;91.63;;
2035;SDS011;23642;42.658;23.350;2023-04-29T12:51:17;95.10;;;89.60;;
2035;SDS011;23642;42.658;23.350;2023-04-29T12:53:44;95.70;;;90.00;;
2035;SDS011;23642;42.658;23.350;2023-04-29T12:56:11;98.90;;;93.20;;
2035;SDS011;23642;42.658;23.350;2023-04-29T12:58:40;96.27;;;90.67;;
2035;SDS011;23642;42.658;23.350;2023-04-29T13:01:08;97.03;;;91.43;;
2035;SDS011;23642;42.658;23.350;2023-04-29T13:03:36;96.27;;;90.57;;
2035;SDS011;23642;42.658;23.350;2023-04-29T13:06:04;92.20;;;86.70;;
2035;SDS011;23642;42.658;23.350;2023-04-29T13:08:32;96.00;;;90.30;;
2035;SDS011;23642;42.658;23.350;2023-04-29T13:11:01;96.80;;;91.10;;
2035;SDS011;23642;42.658;23.350;2023-04-29T13:13:31;95.00;;;89.50;;
2035;SDS011;23642;42.658;23.350;2023-04-29T13:15:58;96.10;;;90.60;;
2035;SDS011;23642;42.658;23.350;2023-04-29T13:18:26;95.87;;;89.27;;
2035;SDS011;23642;42.658;23.350;2023-04-29T13:20:53;95.60;;;89.93;;
2035;SDS011;23642;42.658;23.350;2023-04-29T13:23:20;95.53;;;89.83;;
2035;SDS011;23642;42.658;23.350;2023-04-29T13:25:50;99.93;;;93.80;;
2035;SDS011;23642;42.658;23.350;2023-04-29T13:28:19;94.60;;;89.20;;
2035;SDS011;23642;42.658;23.350;2023-04-29T13:30:46;96.30;;;90.60;;
2035;SDS011;23642;42.658;23.350;2023-04-29T13:33:17;94.00;;;88.70;;
2035;SDS011;23642;42.658;23.350;2023-04-29T13:35:50;97.20;;;91.27;;
2035;SDS011;23642;42.658;23.350;2023-04-29T13:38:17;96.40;;;90.80;;
2035;SDS011;23642;42.658;23.350;2023-04-29T13:40:44;95.97;;;90.27;;
2035;SDS011;23642;42.658;23.350;2023-04-29T13:43:11;95.10;;;89.60;;
2035;SDS011;23642;42.658;23.350;2023-04-29T13:45:38;96.90;;;91.10;;
2035;SDS011;23642;42.658;23.350;2023-04-29T13:48:05;93.53;;;88.13;;
2035;SDS011;23642;42.658;23.350;2023-04-29T13:50:35;94.60;;;89.20;;
2035;SDS011;23642;42.658;23.350;2023-04-29T13:53:06;95.20;;;89.60;;
2035;SDS011;23642;42.658;23.350;2023-04-29T13:55:36;96.77;;;90.97;;
2035;SDS011;23642;42.658;23.350;2023-04-29T13:58:07;97.93;;;92.37;;
2035;SDS011;23642;42.658;23.350;2023-04-29T14:00:34;97.33;;;91.83;;
2035;SDS011;23642;42.658;23.350;2023-04-29T14:03:03;96.60;;;91.10;;
2035;SDS011;23642;42.658;23.350;2023-04-29T14:05:31;97.97;;;92.37;;
2035;SDS011;23642;42.658;23.350;2023-04-29T14:08:00;95.53;;;90.13;;
2035;SDS011;23642;42.658;23.350;2023-04-29T14:10:39;95.93;;;90.53;;
2035;SDS011;23642;42.658;23.350;2023-04-29T14:13:06;97.73;;;91.83;;
2035;SDS011;23642;42.658;23.350;2023-04-29T14:15:33;94.87;;;89.37;;
2035;SDS011;23642;42.658;23.350;2023-04-29T14:18:02;96.80;;;91.10;;
2035;SDS011;23642;42.658;23.350;2023-04-29T14:20:34;95.23;;;89.80;;
2035;SDS011;23642;42.658;23.350;2023-04-29T14:23:06;96.57;;;91.07;;
2035;SDS011;23642;42.658;23.350;2023-04-29T14:25:37;99.67;;;93.97;;
2035;SDS011;23642;42.658;23.350;2023-04-29T14:28:18;94.63;;;89.13;;
2035;SDS011;23642;42.658;23.350;2023-04-29T14:30:48;96.70;;;90.90;;
2035;SDS011;23642;42.658;23.350;2023-04-29T14:33:20;96.73;;;91.23;;
2035;SDS011;23642;42.658;23.350;2023-04-29T14:35:49;97.07;;;91.50;;